Time;durP1;ratioP1;P1;durP2;ratioP2;P2;SDS_P1;SDS_P2;PMS_P1;PMS_P2;Temp;Humidity;BMP_temperature;BMP_pressure;BME280_temperature;BME280_humidity;BME280_pressure;Samples;Min_cycle;Max_cycle;Signal;HPM_P1;HPM_P2
2021/05/26 00:00:08;;;;;;;;;;;;;;;20.68;44.26;101070.31;2216719;39;115332;-53
2021/05/26 00:01:40;;;;;;;;;;;;;;;20.68;44.78;101081.56;2209682;39;117259;-53
2021/05/26 00:03:11;;;;;;;;;;;;;;;20.66;44.57;101077.41;2211316;39;114605;-53
2021/05/26 00:04:43;;;;;;;;;;;;;;;20.65;44.83;101067.31;2214116;39;115498;-53
2021/05/26 00:06:15;;;;;;;;;;;;;;;20.66;44.77;101072.63;2209344;39;113796;-53
2021/05/26 00:07:46;;;;;;;;;;;;;;;20.63;44.78;101067.59;2211488;39;113921;-53
2021/05/26 00:09:18;;;;;;;;;;;;;;;20.64;44.80;101069.28;2213340;39;114047;-52
2021/05/26 00:10:50;;;;;;;;;;;;;;;20.64;44.57;101065.63;2213836;39;113904;-53
2021/05/26 00:12:22;;;;;;;;;;;;;;;20.62;44.73;101067.94;2215104;39;113964;-52
2021/05/26 00:13:53;;;;;;;;;;;;;;;20.62;44.80;101065.13;2217122;39;113692;-52
2021/05/26 00:15:25;;;;;;;;;;;;;;;20.60;44.86;101068.22;2216766;39;113883;-53
2021/05/26 00:16:57;;;;;;;;;;;;;;;20.59;44.85;101066.56;2217115;39;113974;-52
2021/05/26 00:18:28;;;;;;;;;;;;;;;20.60;45.04;101067.38;2203334;39;114318;-52
2021/05/26 00:20:00;;;;;;;;;;;;;;;20.59;44.76;101069.34;2212849;39;113973;-53
2021/05/26 00:21:32;;;;;;;;;;;;;;;20.56;44.78;101066.34;2208903;39;114054;-53
2021/05/26 00:23:04;;;;;;;;;;;;;;;20.55;44.56;101068.31;2206543;39;113994;-53
2021/05/26 00:24:36;;;;;;;;;;;;;;;20.56;45.07;101074.75;2208020;39;113677;-52
2021/05/26 00:26:08;;;;;;;;;;;;;;;20.57;44.58;101073.63;2216775;39;113842;-53
2021/05/26 00:27:39;;;;;;;;;;;;;;;20.55;45.34;101073.09;2215256;39;113887;-54
2021/05/26 00:29:11;;;;;;;;;;;;;;;20.53;45.13;101078.19;2216915;39;115356;-53
2021/05/26 00:30:48;;;;;;;;;;;;;;;20.53;45.38;101070.59;2209704;39;115687;-54
2021/05/26 00:32:20;;;;;;;;;;;;;;;20.51;45.19;101072.88;2203762;39;115533;-53
2021/05/26 00:33:52;;;;;;;;;;;;;;;20.50;45.28;101071.19;2207039;39;114048;-53
2021/05/26 00:35:24;;;;;;;;;;;;;;;20.49;45.34;101079.94;2209392;39;114919;-53
2021/05/26 00:36:55;;;;;;;;;;;;;;;20.46;45.25;101075.75;2215547;39;114916;-53
2021/05/26 00:38:27;;;;;;;;;;;;;;;20.47;45.32;101076.59;2211371;39;115003;-53
2021/05/26 00:39:59;;;;;;;;;;;;;;;20.45;45.24;101062.84;2215278;39;115061;-52
2021/05/26 00:41:30;;;;;;;;;;;;;;;20.44;45.16;101072.44;2217401;39;115052;-52
2021/05/26 00:43:03;;;;;;;;;;;;;;;20.46;45.43;101078.56;2214641;39;114318;-53
2021/05/26 00:44:34;;;;;;;;;;;;;;;20.45;45.39;101076.03;2205263;39;114195;-55
2021/05/26 00:46:06;;;;;;;;;;;;;;;20.43;45.34;101073.56;2214616;39;114834;-53
2021/05/26 00:47:41;;;;;;;;;;;;;;;20.42;45.13;101080.31;2214773;39;114813;-52
2021/05/26 00:49:13;;;;;;;;;;;;;;;20.41;45.38;101075.81;2215262;39;115769;-52
2021/05/26 00:50:44;;;;;;;;;;;;;;;20.40;45.14;101068.53;2218911;39;115406;-52
2021/05/26 00:52:16;;;;;;;;;;;;;;;20.41;45.27;101073.03;2217283;39;114728;-53
2021/05/26 00:53:48;;;;;;;;;;;;;;;20.41;45.24;101073.84;2218755;39;115094;-53
2021/05/26 00:55:20;;;;;;;;;;;;;;;20.40;45.22;101076.97;2219088;39;115768;-53
2021/05/26 00:56:52;;;;;;;;;;;;;;;20.40;45.38;101066.56;2207903;39;114810;-53
2021/05/26 00:58:25;;;;;;;;;;;;;;;20.40;45.79;101083.41;2214229;39;114335;-53
2021/05/26 00:59:57;;;;;;;;;;;;;;;20.40;45.57;101074.16;2215412;39;115440;-52
2021/05/26 01:01:28;;;;;;;;;;;;;;;20.39;45.22;101069.69;2208294;39;114716;-53
2021/05/26 01:03:00;;;;;;;;;;;;;;;20.39;45.72;101069.69;2213352;39;115616;-53
2021/05/26 01:04:32;;;;;;;;;;;;;;;20.38;45.80;101079.25;2205567;39;115813;-53
2021/05/26 01:06:04;;;;;;;;;;;;;;;20.38;45.54;101079.25;2212239;39;115638;-53
2021/05/26 01:07:38;;;;;;;;;;;;;;;20.36;45.57;101079.53;2213161;39;114762;-53
2021/05/26 01:09:09;;;;;;;;;;;;;;;20.37;45.66;101077.56;2213224;39;115775;-52
2021/05/26 01:10:41;;;;;;;;;;;;;;;20.37;45.87;101077.56;2218400;39;115447;-53
2021/05/26 01:12:13;;;;;;;;;;;;;;;20.36;45.59;101075.91;2215781;39;113897;-52
2021/05/26 01:13:45;;;;;;;;;;;;;;;20.35;45.50;101074.25;2217439;39;114000;-53
2021/05/26 01:15:17;;;;;;;;;;;;;;;20.35;45.46;101080.69;2211351;39;113911;-52
2021/05/26 01:16:49;;;;;;;;;;;;;;;20.33;45.62;101077.34;2211026;39;113840;-53
2021/05/26 01:18:23;;;;;;;;;;;;;;;20.33;45.98;101079.31;2210746;39;114419;-53
2021/05/26 01:19:55;;;;;;;;;;;;;;;20.33;46.00;101076.53;2209821;39;113711;-53
2021/05/26 01:21:27;;;;;;;;;;;;;;;20.31;45.72;101075.97;2215575;39;113658;-53
2021/05/26 01:23:00;;;;;;;;;;;;;;;20.31;45.50;101074.00;2217407;39;113858;-53
2021/05/26 01:24:34;;;;;;;;;;;;;;;20.29;45.62;101072.63;2217079;39;113702;-53
2021/05/26 01:26:06;;;;;;;;;;;;;;;20.28;45.65;101074.59;2214805;39;113757;-52
2021/05/26 01:27:38;;;;;;;;;;;;;;;20.26;45.84;101074.06;2216989;39;113913;-53
2021/05/26 01:29:10;;;;;;;;;;;;;;;20.30;45.86;101074.34;2209466;39;114110;-52
2021/05/26 01:30:42;;;;;;;;;;;;;;;20.28;45.79;101074.59;2209590;39;113700;-53
2021/05/26 01:32:14;;;;;;;;;;;;;;;20.26;46.18;101074.06;2219004;39;113774;-52
2021/05/26 01:33:46;;;;;;;;;;;;;;;20.26;45.69;101081.66;2217461;39;114780;-52
2021/05/26 01:35:18;;;;;;;;;;;;;;;20.27;45.71;101074.88;2217839;39;114168;-53
2021/05/26 01:36:50;;;;;;;;;;;;;;;20.25;45.72;101072.41;2218735;39;114507;-53
2021/05/26 01:38:22;;;;;;;;;;;;;;;20.27;45.94;101074.88;2210693;39;115034;-53
2021/05/26 01:39:54;;;;;;;;;;;;;;;20.25;45.89;101068.75;2215919;39;115096;-53
2021/05/26 01:41:26;;;;;;;;;;;;;;;20.27;45.63;101069.28;2217914;39;114844;-53
2021/05/26 01:42:57;;;;;;;;;;;;;;;20.25;45.65;101072.41;2213363;39;115956;-53
2021/05/26 01:44:34;;;;;;;;;;;;;;;20.23;45.82;101076.63;2218131;39;113869;-53
2021/05/26 01:46:05;;;;;;;;;;;;;;;20.20;46.02;101069.66;2213148;39;114803;-53
2021/05/26 01:47:37;;;;;;;;;;;;;;;20.22;45.79;101078.59;2216907;39;114889;-53
2021/05/26 01:49:09;;;;;;;;;;;;;;;20.20;45.57;101072.47;2210990;39;113911;-53
2021/05/26 01:50:41;;;;;;;;;;;;;;;20.21;45.88;101068.53;2205316;39;114941;-54
2021/05/26 01:52:12;;;;;;;;;;;;;;;20.20;45.94;101080.91;2199631;39;115102;-53
2021/05/26 01:53:44;;;;;;;;;;;;;;;20.20;45.85;101075.28;2214353;39;115113;-52
2021/05/26 01:55:16;;;;;;;;;;;;;;;20.21;45.64;101079.75;2213341;39;115061;-53
2021/05/26 01:56:48;;;;;;;;;;;;;;;20.21;45.97;101076.13;2206204;39;114439;-52
2021/05/26 01:58:19;;;;;;;;;;;;;;;20.21;45.82;101076.97;2213298;39;115718;-52
2021/05/26 01:59:51;;;;;;;;;;;;;;;20.22;45.91;101074.97;2211969;39;115945;-53
2021/05/26 02:01:23;;;;;;;;;;;;;;;20.20;46.07;101075.28;2217321;39;115389;-52
2021/05/26 02:02:55;;;;;;;;;;;;;;;20.18;45.78;101071.94;2207053;39;115150;-54
2021/05/26 02:04:27;;;;;;;;;;;;;;;20.20;45.70;101074.44;2209621;39;115823;-53
2021/05/26 02:05:58;;;;;;;;;;;;;;;20.18;46.17;101071.09;2211991;39;115477;-53
2021/05/26 02:07:30;;;;;;;;;;;;;;;20.18;45.94;101071.09;2213613;39;115542;-53
2021/05/26 02:09:02;;;;;;;;;;;;;;;20.17;46.08;101070.25;2213180;39;115694;-53
2021/05/26 02:13:50;;;;;;;;;;;;;;;20.17;45.88;101072.25;2211083;39;115868;-53
2021/05/26 02:15:21;;;;;;;;;;;;;;;20.17;45.97;101064.66;2210750;39;115707;-52
2021/05/26 02:16:53;;;;;;;;;;;;;;;20.19;45.84;101067.16;2209308;39;113757;-53
2021/05/26 02:18:25;;;;;;;;;;;;;;;20.18;45.79;101068.28;2217160;39;113751;-53
2021/05/26 02:19:57;;;;;;;;;;;;;;;20.17;45.83;101072.25;2209693;39;113688;-53
2021/05/26 02:21:29;;;;;;;;;;;;;;;20.13;46.11;101069.19;2214286;39;114047;-53
2021/05/26 02:23:00;;;;;;;;;;;;;;;20.13;45.81;101069.19;2209816;39;113796;-53
2021/05/26 02:24:32;;;;;;;;;;;;;;;20.13;46.23;101069.19;2214557;39;113642;-53
2021/05/26 02:26:04;;;;;;;;;;;;;;;20.13;46.00;101065.56;2217077;39;113668;-53
2021/05/26 02:27:36;;;;;;;;;;;;;;;20.12;45.98;101073.16;2216602;39;113613;-53
2021/05/26 02:29:07;;;;;;;;;;;;;;;20.13;46.03;101065.56;2217539;39;113739;-52
2021/05/26 02:30:39;;;;;;;;;;;;;;;20.13;45.61;101069.19;2211108;39;114447;-53
2021/05/26 02:32:11;;;;;;;;;;;;;;;20.12;46.04;101069.53;2216819;39;113777;-53
2021/05/26 02:33:42;;;;;;;;;;;;;;;20.13;45.65;101062.75;2204921;39;113843;-53
2021/05/26 02:35:14;;;;;;;;;;;;;;;20.12;45.88;101070.34;2213441;39;113921;-53
2021/05/26 02:36:46;;;;;;;;;;;;;;;20.11;45.97;101071.50;2206739;39;114058;-52
2021/05/26 02:38:18;;;;;;;;;;;;;;;20.11;45.77;101070.66;2209690;39;114074;-53
2021/05/26 02:39:49;;;;;;;;;;;;;;;20.10;46.06;101071.78;2214548;39;114938;-52
2021/05/26 02:41:21;;;;;;;;;;;;;;;20.10;45.75;101072.63;2213327;39;114983;-52
2021/05/26 02:42:53;;;;;;;;;;;;;;;20.08;45.89;101065.66;2212314;39;114964;-53
2021/05/26 02:44:24;;;;;;;;;;;;;;;20.07;45.67;101070.44;2217578;39;114850;-53
2021/05/26 02:45:56;;;;;;;;;;;;;;;20.07;45.65;101067.63;2216989;39;115049;-53
2021/05/26 02:47:28;;;;;;;;;;;;;;;20.09;45.71;101070.09;2210608;39;115004;-52
2021/05/26 02:49:00;;;;;;;;;;;;;;;20.08;46.09;101069.28;2215390;39;114343;-53
2021/05/26 02:50:32;;;;;;;;;;;;;;;20.06;45.90;101063.16;2206374;39;115447;-52
2021/05/26 02:52:04;;;;;;;;;;;;;;;20.06;45.85;101063.16;2209205;39;114965;-53
2021/05/26 02:53:35;;;;;;;;;;;;;;;20.06;46.00;101063.16;2206736;39;116113;-53
2021/05/26 02:55:08;;;;;;;;;;;;;;;20.04;45.98;101068.22;2208009;39;115149;-53
2021/05/26 02:56:39;;;;;;;;;;;;;;;20.02;46.01;101069.66;2215388;39;114922;-52
2021/05/26 02:58:11;;;;;;;;;;;;;;;20.03;45.84;101082.56;2209954;39;114788;-52
2021/05/26 02:59:43;;;;;;;;;;;;;;;20.03;46.13;101072.19;2209558;39;114833;-53
2021/05/26 03:01:15;;;;;;;;;;;;;;;20.02;45.81;101067.69;2212520;39;115992;-53
2021/05/26 03:02:47;;;;;;;;;;;;;;;20.01;46.11;101074.44;2216950;39;115519;-54
2021/05/26 03:04:18;;;;;;;;;;;;;;;20.03;45.97;101066.56;2204559;39;115688;-52
2021/05/26 03:05:50;;;;;;;;;;;;;;;20.03;45.98;101060.94;2212144;39;115975;-53
2021/05/26 03:07:22;;;;;;;;;;;;;;;20.03;45.73;101060.94;2212536;39;115590;-53
2021/05/26 03:08:53;;;;;;;;;;;;;;;20.00;45.82;101064.34;2212022;39;115794;-52
2021/05/26 03:10:25;;;;;;;;;;;;;;;20.01;45.84;101060.41;2204789;39;116240;-52
2021/05/26 03:11:57;;;;;;;;;;;;;;;19.97;46.08;101060.19;2214450;39;114592;-53
2021/05/26 03:13:29;;;;;;;;;;;;;;;19.99;45.91;101062.66;2215289;39;115467;-53
2021/05/26 03:15:01;;;;;;;;;;;;;;;19.98;46.31;101063.81;2213686;39;116151;-53
2021/05/26 03:16:33;;;;;;;;;;;;;;;19.97;46.02;101060.19;2206545;39;114730;-53
2021/05/26 03:18:06;;;;;;;;;;;;;;;19.99;45.96;101060.69;2214886;39;115981;-53
2021/05/26 03:19:38;;;;;;;;;;;;;;;19.98;45.92;101058.22;2217011;39;115169;-53
2021/05/26 03:21:09;;;;;;;;;;;;;;;19.97;46.13;101060.19;2214639;39;116132;-53
2021/05/26 03:22:41;;;;;;;;;;;;;;;19.97;46.08;101065.78;2217004;39;113846;-53
2021/05/26 03:24:14;;;;;;;;;;;;;;;19.97;46.25;101053.75;2209615;39;113830;-53
2021/05/26 03:25:47;;;;;;;;;;;;;;;19.93;46.32;101053.50;2214005;39;113794;-53
2021/05/26 03:27:21;;;;;;;;;;;;;;;19.93;46.19;101049.88;2212846;39;113958;-53
2021/05/26 03:28:52;;;;;;;;;;;;;;;19.92;46.14;101057.44;2204000;39;113723;-53
2021/05/26 03:30:24;;;;;;;;;;;;;;;19.92;46.34;101051.84;2208957;39;113756;-53
2021/05/26 03:31:56;;;;;;;;;;;;;;;19.94;46.13;101059.97;2210422;39;113699;-52
2021/05/26 03:33:27;;;;;;;;;;;;;;;19.93;46.11;101061.94;2212837;39;115053;-52
2021/05/26 03:34:59;;;;;;;;;;;;;;;19.94;46.10;101069.19;2209526;39;114120;-53
2021/05/26 03:36:31;;;;;;;;;;;;;;;19.92;46.03;101063.06;2207712;39;113847;-52
2021/05/26 03:38:03;;;;;;;;;;;;;;;19.90;45.90;101065.31;2208426;39;114102;-53
2021/05/26 03:39:35;;;;;;;;;;;;;;;19.91;45.98;101066.16;2204954;39;114036;-52
2021/05/26 03:41:06;;;;;;;;;;;;;;;19.90;45.85;101062.50;2208127;39;113832;-54
2021/05/26 03:42:38;;;;;;;;;;;;;;;19.89;45.96;101054.41;2206439;39;113758;-53
2021/05/26 03:44:11;;;;;;;;;;;;;;;19.89;45.81;101066.47;2212957;39;114897;-52
2021/05/26 03:45:43;;;;;;;;;;;;;;;19.88;46.05;101067.59;2204107;39;115262;-53
2021/05/26 03:47:15;;;;;;;;;;;;;;;19.85;45.66;101065.38;2214623;39;114865;-53
2021/05/26 03:48:46;;;;;;;;;;;;;;;19.86;46.03;101064.25;2217456;39;114775;-53
2021/05/26 03:50:18;;;;;;;;;;;;;;;19.85;45.66;101067.38;2203737;39;115407;-53
2021/05/26 03:51:50;;;;;;;;;;;;;;;19.85;45.63;101065.38;2208003;39;115254;-52
2021/05/26 03:53:21;;;;;;;;;;;;;;;19.84;45.57;101060.94;2212103;39;114732;-53
2021/05/26 03:54:53;;;;;;;;;;;;;;;19.84;45.65;101069.34;2216642;39;114965;-53
2021/05/26 03:56:25;;;;;;;;;;;;;;;19.84;45.71;101069.34;2216309;39;114553;-53
2021/05/26 03:57:56;;;;;;;;;;;;;;;19.83;45.54;101064.03;2212035;39;113925;-53
2021/05/26 03:59:28;;;;;;;;;;;;;;;19.84;45.82;101062.91;2216792;39;115000;-53
2021/05/26 04:01:00;;;;;;;;;;;;;;;19.82;45.89;101068.78;2209959;39;114785;-52
2021/05/26 04:02:31;;;;;;;;;;;;;;;19.82;45.82;101074.41;2211819;39;113858;-52
2021/05/26 04:04:04;;;;;;;;;;;;;;;19.80;46.02;101079.50;2216778;39;115030;-54
2021/05/26 04:05:35;;;;;;;;;;;;;;;19.79;45.84;101072.22;2215038;39;115961;-53
2021/05/26 04:07:08;;;;;;;;;;;;;;;19.81;45.85;101072.72;2217145;39;115628;-53
2021/05/26 04:08:39;;;;;;;;;;;;;;;19.79;46.00;101072.22;2203434;39;115775;-53
2021/05/26 04:10:12;;;;;;;;;;;;;;;19.80;46.06;101078.66;2204625;39;115691;-53
2021/05/26 04:11:44;;;;;;;;;;;;;;;19.82;46.01;101082.81;2203225;39;115660;-53
2021/05/26 04:13:15;;;;;;;;;;;;;;;19.80;45.84;101079.50;2212848;39;115669;-53
2021/05/26 04:14:47;;;;;;;;;;;;;;;19.79;46.36;101079.78;2216146;39;114693;-52
2021/05/26 04:16:19;;;;;;;;;;;;;;;19.81;46.19;101078.34;2207323;39;115737;-53
2021/05/26 04:17:51;;;;;;;;;;;;;;;19.80;46.07;101079.50;2205345;39;115941;-54
2021/05/26 04:19:22;;;;;;;;;;;;;;;19.80;46.04;101084.25;2214164;39;116158;-52
2021/05/26 04:20:54;;;;;;;;;;;;;;;19.79;46.00;101079.78;2209253;39;115778;-53
2021/05/26 04:22:26;;;;;;;;;;;;;;;19.76;46.17;101086.81;2207980;39;116060;-54
2021/05/26 04:23:58;;;;;;;;;;;;;;;19.78;46.12;101081.75;2211131;39;115488;-52
2021/05/26 04:25:29;;;;;;;;;;;;;;;19.76;46.03;101092.41;2210988;39;114611;-53
2021/05/26 04:27:01;;;;;;;;;;;;;;;19.77;46.10;101079.25;2218393;39;115582;-53
2021/05/26 04:28:33;;;;;;;;;;;;;;;19.76;46.25;101088.81;2202345;39;113955;-53
2021/05/26 04:30:05;;;;;;;;;;;;;;;19.74;46.32;101091.91;2207123;39;114989;-53
2021/05/26 04:31:37;;;;;;;;;;;;;;;19.74;46.32;101091.91;2216597;39;113773;-53
2021/05/26 04:33:09;;;;;;;;;;;;;;;19.76;46.33;101094.41;2204760;39;113964;-53
2021/05/26 04:34:44;;;;;;;;;;;;;;;19.73;46.12;101087.41;2214186;39;114165;-52
2021/05/26 04:36:16;;;;;;;;;;;;;;;19.74;46.24;101091.06;2209961;39;113839;-54
2021/05/26 04:37:48;;;;;;;;;;;;;;;19.74;46.07;101093.88;2213520;39;114376;-53
2021/05/26 04:39:19;;;;;;;;;;;;;;;19.74;46.17;101096.66;2212418;39;115275;-53
2021/05/26 04:40:52;;;;;;;;;;;;;;;19.73;46.08;101104.25;2216930;39;114115;-52
2021/05/26 04:42:24;;;;;;;;;;;;;;;19.73;46.29;101092.19;2214512;39;113832;-53
2021/05/26 04:43:56;;;;;;;;;;;;;;;19.72;46.20;101096.97;2209533;39;114185;-53
2021/05/26 04:45:27;;;;;;;;;;;;;;;19.71;46.42;101092.50;2207226;39;113693;-52
2021/05/26 04:47:03;;;;;;;;;;;;;;;19.72;46.33;101099.75;2207402;39;114036;-52
2021/05/26 04:48:34;;;;;;;;;;;;;;;19.70;46.32;101099.25;2209658;39;113833;-52
2021/05/26 04:50:06;;;;;;;;;;;;;;;19.69;46.59;101091.97;2200205;39;114824;-53
2021/05/26 04:51:38;;;;;;;;;;;;;;;19.70;46.71;101095.59;2211165;39;114859;-53
2021/05/26 04:53:10;;;;;;;;;;;;;;;19.76;46.71;101094.41;2209485;39;114235;-53
2021/05/26 04:54:42;;;;;;;;;;;;;;;19.77;47.21;101104.47;2207829;39;115292;-52
2021/05/26 04:56:14;;;;;;;;;;;;;;;19.77;47.29;101107.28;2214016;39;115197;-53
2021/05/26 04:57:46;;;;;;;;;;;;;;;19.79;47.29;101105.03;2214194;39;114762;-52
2021/05/26 04:59:17;;;;;;;;;;;;;;;19.82;47.19;101101.59;2216939;39;114750;-53
2021/05/26 05:00:49;;;;;;;;;;;;;;;19.83;47.18;101106.91;2213776;39;114025;-53
2021/05/26 05:02:21;;;;;;;;;;;;;;;19.86;47.06;101100.69;2216313;39;114877;-53
2021/05/26 05:03:53;;;;;;;;;;;;;;;19.90;46.93;101106.53;2216667;39;114349;-52
2021/05/26 05:05:29;;;;;;;;;;;;;;;19.94;46.93;101104.81;2214343;39;115018;-61
2021/05/26 05:07:01;;;;;;;;;;;;;;;19.97;47.27;101102.25;2208610;39;115095;-53
2021/05/26 05:08:33;;;;;;;;;;;;;;;20.02;47.54;101106.97;2213671;39;114920;-53
2021/05/26 05:10:05;;;;;;;;;;;;;;;20.06;47.73;101107.19;2219293;39;114772;-54
2021/05/26 05:11:37;;;;;;;;;;;;;;;20.11;47.45;101116.38;2214576;39;114602;-53
2021/05/26 05:13:09;;;;;;;;;;;;;;;20.16;47.78;101104.25;2214317;39;115880;-54
2021/05/26 05:14:40;;;;;;;;;;;;;;;20.20;47.91;101099.69;2208323;39;115976;-52
2021/05/26 05:16:12;;;;;;;;;;;;;;;20.24;47.43;101112.81;2212875;39;115763;-53
2021/05/26 05:17:45;;;;;;;;;;;;;;;20.30;47.52;101116.41;2208948;39;115904;-53
2021/05/26 05:19:17;;;;;;;;;;;;;;;20.34;47.65;101118.31;2204678;39;115434;-53
2021/05/26 05:20:48;;;;;;;;;;;;;;;20.38;48.03;101113.75;2211242;39;115757;-53
2021/05/26 05:22:20;;;;;;;;;;;;;;;20.42;47.67;101120.44;2214032;39;116597;-53
2021/05/26 05:23:52;;;;;;;;;;;;;;;20.47;47.71;101125.13;2204325;39;115541;-53
2021/05/26 05:25:24;;;;;;;;;;;;;;;20.53;47.70;101129.53;2207523;39;115980;-52
2021/05/26 05:26:55;;;;;;;;;;;;;;;20.56;47.24;101134.53;2198510;39;115662;-52
2021/05/26 05:28:27;;;;;;;;;;;;;;;20.62;47.21;101130.53;2211769;39;115449;-53
2021/05/26 05:29:59;;;;;;;;;;;;;;;20.64;47.43;101122.63;2206157;39;115324;-53
2021/05/26 05:31:31;;;;;;;;;;;;;;;20.70;47.34;101138.25;2209344;39;115521;-53
2021/05/26 05:33:03;;;;;;;;;;;;;;;20.74;47.17;101139.31;2211674;39;113755;-53
2021/05/26 05:34:35;;;;;;;;;;;;;;;20.78;47.35;101136.72;2215641;39;113698;-53
2021/05/26 05:36:09;;;;;;;;;;;;;;;20.82;46.91;101129.34;2210022;39;113764;-52
2021/05/26 05:37:41;;;;;;;;;;;;;;;20.87;46.35;101134.88;2207923;39;113781;-53
2021/05/26 05:39:13;;;;;;;;;;;;;;;20.91;46.34;101129.47;2214128;39;113977;-53
2021/05/26 05:40:44;;;;;;;;;;;;;;;20.95;46.47;101133.34;2215547;39;114221;-53
2021/05/26 05:42:16;;;;;;;;;;;;;;;21.01;46.40;101140.56;2214986;39;113874;-54
2021/05/26 05:43:48;;;;;;;;;;;;;;;21.03;45.99;101143.91;2217199;39;113642;-54
2021/05/26 05:45:20;;;;;;;;;;;;;;;21.08;46.18;101135.34;2210499;39;113843;-53
2021/05/26 05:46:51;;;;;;;;;;;;;;;21.11;45.94;101134.75;2208149;39;113796;-53
2021/05/26 05:48:23;;;;;;;;;;;;;;;21.16;46.02;101140.31;2208177;39;114215;-54
2021/05/26 05:49:55;;;;;;;;;;;;;;;21.18;45.56;101141.66;2208191;39;113772;-52
2021/05/26 05:51:27;;;;;;;;;;;;;;;21.22;45.72;101137.09;2208699;39;113768;-52
2021/05/26 05:52:58;;;;;;;;;;;;;;;21.28;45.75;101143.47;2210454;39;114030;-52
2021/05/26 05:54:30;;;;;;;;;;;;;;;21.30;45.44;101136.38;2215986;39;113682;-53
2021/05/26 05:56:03;;;;;;;;;;;;;;;21.35;45.44;101143.88;2216360;39;114779;-52
2021/05/26 05:57:36;;;;;;;;;;;;;;;21.40;45.48;101146.59;2217362;39;115522;-52
2021/05/26 05:59:08;;;;;;;;;;;;;;;21.43;45.28;101146.00;2208594;39;114045;-53
2021/05/26 06:00:40;;;;;;;;;;;;;;;21.46;44.93;101142.56;2211274;39;114744;-53
2021/05/26 06:02:11;;;;;;;;;;;;;;;21.50;45.17;101145.59;2217451;39;114753;-53
2021/05/26 06:03:43;;;;;;;;;;;;;;;21.53;45.12;101145.00;2210141;39;114817;-52
2021/05/26 06:05:15;;;;;;;;;;;;;;;21.56;44.98;101155.59;2214674;39;114881;-52
2021/05/26 06:06:47;;;;;;;;;;;;;;;21.57;44.93;101144.06;2209149;39;114061;-53
2021/05/26 06:08:18;;;;;;;;;;;;;;;21.60;44.70;101151.84;2206409;39;115222;-52
2021/05/26 06:09:51;;;;;;;;;;;;;;;21.62;44.84;101149.56;2214589;39;115183;-52
2021/05/26 06:11:23;;;;;;;;;;;;;;;21.63;44.73;101154.03;2201604;39;113963;-53
2021/05/26 06:12:56;;;;;;;;;;;;;;;21.65;44.30;101154.56;2206634;39;114189;-52
2021/05/26 06:14:28;;;;;;;;;;;;;;;21.68;44.64;101150.28;2204094;39;115714;-53
2021/05/26 06:15:59;;;;;;;;;;;;;;;21.68;44.63;101151.13;2216527;39;113918;-53
2021/05/26 06:17:31;;;;;;;;;;;;;;;21.69;44.51;101155.63;2215112;39;115951;-53
2021/05/26 06:19:04;;;;;;;;;;;;;;;21.70;44.58;101157.28;2214128;39;114616;-53
2021/05/26 06:20:35;;;;;;;;;;;;;;;21.72;44.78;101152.16;2209061;39;115684;-53
2021/05/26 06:22:07;;;;;;;;;;;;;;;21.72;44.91;101152.16;2207789;39;115799;-53
2021/05/26 06:23:39;;;;;;;;;;;;;;;21.72;44.80;101154.16;2204358;39;114584;-52
2021/05/26 06:25:11;;;;;;;;;;;;;;;21.73;45.07;101158.63;2208077;39;115716;-53
2021/05/26 06:26:42;;;;;;;;;;;;;;;21.74;44.81;101155.53;2213492;39;115457;-52
2021/05/26 06:28:14;;;;;;;;;;;;;;;21.75;44.70;101156.34;2216697;39;115693;-55
2021/05/26 06:29:46;;;;;;;;;;;;;;;21.76;44.83;101157.19;2215818;39;114627;-52
2021/05/26 06:31:20;;;;;;;;;;;;;;;21.76;44.75;101154.38;2216429;39;114878;-52
2021/05/26 06:32:51;;;;;;;;;;;;;;;21.77;44.73;101156.03;2214957;39;115467;-52
2021/05/26 06:34:23;;;;;;;;;;;;;;;21.77;44.95;101147.59;2216272;39;116487;-52
2021/05/26 06:35:56;;;;;;;;;;;;;;;21.76;44.60;101152.38;2207674;39;114850;-53
2021/05/26 06:37:28;;;;;;;;;;;;;;;21.76;44.92;101158.00;2213653;39;115911;-52
2021/05/26 06:39:00;;;;;;;;;;;;;;;21.76;44.88;101155.19;2216175;39;113689;-53
2021/05/26 06:40:32;;;;;;;;;;;;;;;21.76;44.80;101157.19;2207183;39;114904;-57
2021/05/26 06:42:04;;;;;;;;;;;;;;;21.76;44.81;101149.56;2207504;39;114363;-52
2021/05/26 06:43:36;;;;;;;;;;;;;;;21.74;44.52;101155.53;2213430;39;113868;-53
2021/05/26 06:45:08;;;;;;;;;;;;;;;21.76;44.37;101157.19;2215469;39;114187;-52
2021/05/26 06:46:40;;;;;;;;;;;;;;;21.73;44.86;101156.66;2215598;39;114067;-52
2021/05/26 06:48:12;;;;;;;;;;;;;;;21.75;44.90;101156.34;2214066;39;113799;-53
2021/05/26 06:49:43;;;;;;;;;;;;;;;21.78;44.95;101163.31;2208496;39;113988;-54
2021/05/26 06:51:15;;;;;;;;;;;;;;;21.80;44.52;101161.03;2214294;39;113869;-53
2021/05/26 06:52:47;;;;;;;;;;;;;;;21.76;44.08;101165.63;2209559;39;113971;-53
2021/05/26 06:54:20;;;;;;;;;;;;;;;21.66;43.42;101158.22;2207814;39;114405;-53
2021/05/26 06:55:53;;;;;;;;;;;;;;;21.63;43.04;101161.63;2213307;39;113868;-53
2021/05/26 06:57:25;;;;;;;;;;;;;;;21.60;42.43;101165.09;2208257;39;113871;-52
2021/05/26 06:58:56;;;;;;;;;;;;;;;21.58;42.59;101158.91;2215859;39;113976;-52
2021/05/26 07:00:29;;;;;;;;;;;;;;;21.55;42.67;101167.97;2208917;39;114744;-52
2021/05/26 07:02:01;;;;;;;;;;;;;;;21.49;42.35;101161.63;2209670;39;114342;-53
2021/05/26 07:03:32;;;;;;;;;;;;;;;21.47;42.12;101161.09;2214586;39;114951;-53
2021/05/26 07:05:05;;;;;;;;;;;;;;;21.51;41.81;101162.16;2217053;39;114759;-52
2021/05/26 07:06:36;;;;;;;;;;;;;;;21.52;41.74;101158.22;2215974;39;114286;-52
2021/05/26 07:08:08;;;;;;;;;;;;;;;21.51;41.82;101166.94;2208723;39;114812;-53
2021/05/26 07:09:40;;;;;;;;;;;;;;;21.48;41.94;101159.97;2208898;39;114223;-53
2021/05/26 07:11:11;;;;;;;;;;;;;;;21.47;41.75;101163.91;2214789;39;114367;-53
2021/05/26 07:12:46;;;;;;;;;;;;;;;21.46;41.82;101165.06;2211242;39;114227;-53
2021/05/26 07:14:17;;;;;;;;;;;;;;;21.46;41.55;101165.06;2211308;39;114793;-53
2021/05/26 07:15:49;;;;;;;;;;;;;;;21.46;41.49;101170.69;2207703;39;115309;-53
2021/05/26 07:17:21;;;;;;;;;;;;;;;21.46;41.76;101173.50;2214527;39;114940;-53
2021/05/26 07:18:57;;;;;;;;;;;;;;;21.43;41.54;101176.09;2213436;39;114835;-53
2021/05/26 07:20:29;;;;;;;;;;;;;;;21.44;41.61;101169.34;2219356;39;114922;-53
2021/05/26 07:22:01;;;;;;;;;;;;;;;21.41;41.29;101170.78;2217013;39;115442;-54
2021/05/26 07:23:32;;;;;;;;;;;;;;;21.40;41.34;101174.72;2217146;39;115583;-53
2021/05/26 07:25:05;;;;;;;;;;;;;;;21.38;41.49;101171.41;2217112;39;114911;-53
2021/05/26 07:26:37;;;;;;;;;;;;;;;21.38;41.74;101173.38;2209395;39;114533;-53
2021/05/26 07:28:09;;;;;;;;;;;;;;;21.36;41.44;101170.84;2208926;39;115913;-53
2021/05/26 07:29:41;;;;;;;;;;;;;;;21.33;41.86;101167.84;2210140;39;114670;-54
2021/05/26 07:31:13;;;;;;;;;;;;;;;21.34;41.45;101169.50;2204662;39;116422;-53
2021/05/26 07:32:45;;;;;;;;;;;;;;;21.35;41.33;101172.00;2204863;39;115735;-53
2021/05/26 07:34:17;;;;;;;;;;;;;;;21.33;41.53;101170.66;2213015;39;116469;-52
2021/05/26 07:35:48;;;;;;;;;;;;;;;21.31;41.35;101176.56;2214542;39;114884;-52
2021/05/26 07:37:40;;;;;;;;;;;;;;;21.30;41.29;101174.94;2212630;39;115803;-52
2021/05/26 07:39:12;;;;;;;;;;;;;;;21.29;41.48;101178.88;2212176;39;115916;-52
2021/05/26 07:40:44;;;;;;;;;;;;;;;21.27;41.41;101172.72;2213350;39;115568;-54
2021/05/26 07:42:16;;;;;;;;;;;;;;;21.27;41.84;101176.34;2205865;39;115449;-53
2021/05/26 07:43:48;;;;;;;;;;;;;;;21.27;41.74;101178.31;2210885;39;115603;-52
2021/05/26 07:45:21;;;;;;;;;;;;;;;21.25;41.49;101177.81;2212460;39;114180;-53
2021/05/26 07:46:54;;;;;;;;;;;;;;;21.21;41.74;101182.38;2203120;39;113811;-53
2021/05/26 07:48:26;;;;;;;;;;;;;;;21.21;41.86;101180.38;2208983;39;114013;-53
2021/05/26 07:49:57;;;;;;;;;;;;;;;21.20;41.62;101177.91;2204435;39;114070;-53